sensor_id;sensor_type;location;lat;lon;timestamp;P1;durP1;ratioP1;P2;durP2;ratioP2
77206;SDS011;66190;50.708;7.906;2023-08-01T00:01:42;2.90;;;0.60;;
77206;SDS011;66190;50.708;7.906;2023-08-01T00:04:07;2.23;;;0.40;;
77206;SDS011;66190;50.708;7.906;2023-08-01T00:06:33;1.47;;;0.30;;
77206;SDS011;66190;50.708;7.906;2023-08-01T00:08:58;2.20;;;0.50;;
77206;SDS011;66190;50.708;7.906;2023-08-01T00:11:23;1.73;;;0.40;;
77206;SDS011;66190;50.708;7.906;2023-08-01T00:13:49;2.67;;;0.40;;
77206;SDS011;66190;50.708;7.906;2023-08-01T00:16:14;2.50;;;0.50;;
77206;SDS011;66190;50.708;7.906;2023-08-01T00:18:39;2.33;;;0.40;;
77206;SDS011;66190;50.708;7.906;2023-08-01T00:21:05;3.17;;;0.50;;
77206;SDS011;66190;50.708;7.906;2023-08-01T00:23:34;5.18;;;0.88;;
77206;SDS011;66190;50.708;7.906;2023-08-01T00:25:59;3.37;;;0.50;;
77206;SDS011;66190;50.708;7.906;2023-08-01T00:28:24;3.03;;;0.67;;
77206;SDS011;66190;50.708;7.906;2023-08-01T00:31:00;3.42;;;0.70;;
77206;SDS011;66190;50.708;7.906;2023-08-01T00:33:28;3.40;;;0.70;;
77206;SDS011;66190;50.708;7.906;2023-08-01T00:35:54;4.17;;;0.80;;
77206;SDS011;66190;50.708;7.906;2023-08-01T00:38:19;2.67;;;0.67;;
77206;SDS011;66190;50.708;7.906;2023-08-01T00:40:45;3.58;;;0.60;;
77206;SDS011;66190;50.708;7.906;2023-08-01T00:43:10;3.33;;;0.80;;
77206;SDS011;66190;50.708;7.906;2023-08-01T00:45:35;4.03;;;0.70;;
77206;SDS011;66190;50.708;7.906;2023-08-01T00:48:01;11.27;;;0.90;;
77206;SDS011;66190;50.708;7.906;2023-08-01T00:50:26;3.73;;;0.60;;
77206;SDS011;66190;50.708;7.906;2023-08-01T00:52:52;2.13;;;0.40;;
77206;SDS011;66190;50.708;7.906;2023-08-01T00:55:18;3.40;;;0.80;;
77206;SDS011;66190;50.708;7.906;2023-08-01T00:57:43;2.10;;;0.50;;
77206;SDS011;66190;50.708;7.906;2023-08-01T01:00:09;2.93;;;0.53;;
77206;SDS011;66190;50.708;7.906;2023-08-01T01:02:35;2.35;;;0.50;;
77206;SDS011;66190;50.708;7.906;2023-08-01T01:05:02;1.92;;;0.40;;
77206;SDS011;66190;50.708;7.906;2023-08-01T01:07:28;2.38;;;0.57;;
77206;SDS011;66190;50.708;7.906;2023-08-01T01:09:54;3.10;;;0.70;;
77206;SDS011;66190;50.708;7.906;2023-08-01T01:12:19;2.65;;;0.60;;
77206;SDS011;66190;50.708;7.906;2023-08-01T01:14:45;2.30;;;0.50;;
77206;SDS011;66190;50.708;7.906;2023-08-01T01:17:11;3.43;;;0.70;;
77206;SDS011;66190;50.708;7.906;2023-08-01T01:19:36;3.00;;;0.70;;
77206;SDS011;66190;50.708;7.906;2023-08-01T01:22:03;4.23;;;0.80;;
77206;SDS011;66190;50.708;7.906;2023-08-01T01:24:42;2.58;;;0.57;;
77206;SDS011;66190;50.708;7.906;2023-08-01T01:27:33;5.03;;;0.60;;
77206;SDS011;66190;50.708;7.906;2023-08-01T01:30:26;2.30;;;0.50;;
77206;SDS011;66190;50.708;7.906;2023-08-01T01:33:19;2.78;;;0.50;;
77206;SDS011;66190;50.708;7.906;2023-08-01T01:36:10;3.53;;;0.70;;
77206;SDS011;66190;50.708;7.906;2023-08-01T01:39:00;2.60;;;0.60;;
77206;SDS011;66190;50.708;7.906;2023-08-01T01:41:50;2.47;;;0.50;;
77206;SDS011;66190;50.708;7.906;2023-08-01T04:26:20;3.23;;;0.70;;
77206;SDS011;66190;50.708;7.906;2023-08-01T04:28:46;3.50;;;0.90;;
77206;SDS011;66190;50.708;7.906;2023-08-01T04:31:12;3.75;;;1.00;;
77206;SDS011;66190;50.708;7.906;2023-08-01T04:33:37;4.43;;;1.40;;
77206;SDS011;66190;50.708;7.906;2023-08-01T04:36:03;4.27;;;1.37;;
77206;SDS011;66190;50.708;7.906;2023-08-01T04:38:28;5.70;;;1.83;;
77206;SDS011;66190;50.708;7.906;2023-08-01T04:40:54;6.50;;;2.10;;
77206;SDS011;66190;50.708;7.906;2023-08-01T04:43:19;6.73;;;2.40;;
77206;SDS011;66190;50.708;7.906;2023-08-01T04:45:45;6.97;;;2.60;;
77206;SDS011;66190;50.708;7.906;2023-08-01T04:48:10;7.80;;;2.27;;
77206;SDS011;66190;50.708;7.906;2023-08-01T04:50:35;6.57;;;2.37;;
77206;SDS011;66190;50.708;7.906;2023-08-01T04:53:01;6.87;;;2.43;;
77206;SDS011;66190;50.708;7.906;2023-08-01T04:55:26;7.40;;;2.63;;
77206;SDS011;66190;50.708;7.906;2023-08-01T04:57:51;6.00;;;2.55;;
77206;SDS011;66190;50.708;7.906;2023-08-01T05:00:17;6.53;;;2.53;;
77206;SDS011;66190;50.708;7.906;2023-08-01T05:02:42;6.40;;;2.53;;
77206;SDS011;66190;50.708;7.906;2023-08-01T05:05:08;6.80;;;2.57;;
77206;SDS011;66190;50.708;7.906;2023-08-01T05:07:33;7.10;;;2.83;;
77206;SDS011;66190;50.708;7.906;2023-08-01T05:09:58;7.40;;;3.40;;
77206;SDS011;66190;50.708;7.906;2023-08-01T05:12:24;9.47;;;3.30;;
77206;SDS011;66190;50.708;7.906;2023-08-01T05:14:49;8.77;;;4.13;;
77206;SDS011;66190;50.708;7.906;2023-08-01T05:17:15;9.27;;;3.87;;
77206;SDS011;66190;50.708;7.906;2023-08-01T05:19:40;8.82;;;3.88;;
77206;SDS011;66190;50.708;7.906;2023-08-01T05:22:06;9.43;;;4.77;;
77206;SDS011;66190;50.708;7.906;2023-08-01T05:24:31;11.03;;;5.60;;
77206;SDS011;66190;50.708;7.906;2023-08-01T05:26:57;7.50;;;3.53;;
77206;SDS011;66190;50.708;7.906;2023-08-01T05:29:22;12.48;;;4.75;;
77206;SDS011;66190;50.708;7.906;2023-08-01T05:31:47;14.07;;;5.23;;
77206;SDS011;66190;50.708;7.906;2023-08-01T05:34:13;11.97;;;5.40;;
77206;SDS011;66190;50.708;7.906;2023-08-01T05:36:38;10.53;;;5.03;;
77206;SDS011;66190;50.708;7.906;2023-08-01T05:39:04;10.50;;;5.27;;
77206;SDS011;66190;50.708;7.906;2023-08-01T05:41:29;13.18;;;5.10;;
77206;SDS011;66190;50.708;7.906;2023-08-01T05:43:55;9.97;;;4.47;;
77206;SDS011;66190;50.708;7.906;2023-08-01T05:46:20;9.87;;;4.10;;
77206;SDS011;66190;50.708;7.906;2023-08-01T05:48:46;11.83;;;4.13;;
77206;SDS011;66190;50.708;7.906;2023-08-01T05:51:11;8.70;;;3.95;;
77206;SDS011;66190;50.708;7.906;2023-08-01T05:53:36;9.80;;;4.73;;
77206;SDS011;66190;50.708;7.906;2023-08-01T05:56:02;10.03;;;4.57;;
77206;SDS011;66190;50.708;7.906;2023-08-01T05:58:27;10.00;;;3.87;;
77206;SDS011;66190;50.708;7.906;2023-08-01T06:00:53;8.80;;;3.13;;
77206;SDS011;66190;50.708;7.906;2023-08-01T06:03:18;5.35;;;2.10;;
77206;SDS011;66190;50.708;7.906;2023-08-01T06:05:44;8.33;;;2.80;;
77206;SDS011;66190;50.708;7.906;2023-08-01T06:08:09;8.37;;;3.10;;
77206;SDS011;66190;50.708;7.906;2023-08-01T06:10:35;7.57;;;2.70;;
77206;SDS011;66190;50.708;7.906;2023-08-01T06:13:01;8.20;;;2.30;;
77206;SDS011;66190;50.708;7.906;2023-08-01T06:15:26;8.87;;;2.87;;
77206;SDS011;66190;50.708;7.906;2023-08-01T06:17:52;8.90;;;3.00;;
77206;SDS011;66190;50.708;7.906;2023-08-01T06:20:17;6.57;;;2.17;;
77206;SDS011;66190;50.708;7.906;2023-08-01T06:22:43;7.97;;;2.70;;
77206;SDS011;66190;50.708;7.906;2023-08-01T06:25:08;6.57;;;2.60;;
77206;SDS011;66190;50.708;7.906;2023-08-01T06:27:34;8.95;;;2.42;;
77206;SDS011;66190;50.708;7.906;2023-08-01T06:29:59;7.23;;;2.47;;
77206;SDS011;66190;50.708;7.906;2023-08-01T06:32:25;6.50;;;2.40;;
77206;SDS011;66190;50.708;7.906;2023-08-01T06:34:50;10.93;;;3.00;;
77206;SDS011;66190;50.708;7.906;2023-08-01T06:37:16;9.60;;;2.60;;
77206;SDS011;66190;50.708;7.906;2023-08-01T06:39:41;8.40;;;2.27;;
77206;SDS011;66190;50.708;7.906;2023-08-01T06:42:06;8.50;;;2.47;;
77206;SDS011;66190;50.708;7.906;2023-08-01T06:44:32;9.30;;;2.80;;
77206;SDS011;66190;50.708;7.906;2023-08-01T06:46:57;9.07;;;2.85;;
77206;SDS011;66190;50.708;7.906;2023-08-01T06:49:23;8.80;;;3.35;;
77206;SDS011;66190;50.708;7.906;2023-08-01T06:51:48;8.70;;;3.13;;
77206;SDS011;66190;50.708;7.906;2023-08-01T06:54:13;10.17;;;3.50;;
77206;SDS011;66190;50.708;7.906;2023-08-01T06:56:39;8.47;;;3.47;;
77206;SDS011;66190;50.708;7.906;2023-08-01T06:59:04;8.93;;;3.40;;
77206;SDS011;66190;50.708;7.906;2023-08-01T07:01:29;9.30;;;3.70;;
77206;SDS011;66190;50.708;7.906;2023-08-01T07:03:55;10.40;;;3.75;;
77206;SDS011;66190;50.708;7.906;2023-08-01T07:06:21;10.35;;;3.35;;
77206;SDS011;66190;50.708;7.906;2023-08-01T07:08:48;8.18;;;2.80;;
77206;SDS011;66190;50.708;7.906;2023-08-01T07:11:13;8.57;;;2.53;;
77206;SDS011;66190;50.708;7.906;2023-08-01T07:13:38;8.85;;;3.13;;
77206;SDS011;66190;50.708;7.906;2023-08-01T07:16:04;8.60;;;2.97;;
77206;SDS011;66190;50.708;7.906;2023-08-01T07:18:30;8.50;;;3.30;;
77206;SDS011;66190;50.708;7.906;2023-08-01T07:20:59;9.88;;;3.55;;
77206;SDS011;66190;50.708;7.906;2023-08-01T07:23:28;9.37;;;2.97;;
77206;SDS011;66190;50.708;7.906;2023-08-01T07:25:54;9.05;;;2.85;;
77206;SDS011;66190;50.708;7.906;2023-08-01T07:28:19;9.37;;;2.90;;
77206;SDS011;66190;50.708;7.906;2023-08-01T07:30:45;8.30;;;2.67;;
77206;SDS011;66190;50.708;7.906;2023-08-01T07:33:10;8.87;;;2.87;;
77206;SDS011;66190;50.708;7.906;2023-08-01T07:35:35;6.93;;;2.20;;
77206;SDS011;66190;50.708;7.906;2023-08-01T07:38:01;8.60;;;2.93;;
77206;SDS011;66190;50.708;7.906;2023-08-01T07:40:26;9.03;;;2.70;;
77206;SDS011;66190;50.708;7.906;2023-08-01T07:42:51;9.50;;;3.10;;
77206;SDS011;66190;50.708;7.906;2023-08-01T07:45:17;8.13;;;2.63;;
77206;SDS011;66190;50.708;7.906;2023-08-01T07:47:44;7.72;;;3.08;;
77206;SDS011;66190;50.708;7.906;2023-08-01T07:50:09;8.73;;;2.93;;
77206;SDS011;66190;50.708;7.906;2023-08-01T07:52:35;9.43;;;3.10;;
77206;SDS011;66190;50.708;7.906;2023-08-01T07:55:01;9.73;;;2.83;;
77206;SDS011;66190;50.708;7.906;2023-08-01T07:57:26;8.73;;;2.47;;
77206;SDS011;66190;50.708;7.906;2023-08-01T07:59:51;8.03;;;2.70;;
77206;SDS011;66190;50.708;7.906;2023-08-01T08:02:17;10.33;;;2.83;;
77206;SDS011;66190;50.708;7.906;2023-08-01T08:04:42;8.75;;;2.78;;
77206;SDS011;66190;50.708;7.906;2023-08-01T08:07:07;8.07;;;2.77;;
77206;SDS011;66190;50.708;7.906;2023-08-01T08:09:33;8.50;;;3.00;;
77206;SDS011;66190;50.708;7.906;2023-08-01T08:11:58;7.03;;;3.07;;
77206;SDS011;66190;50.708;7.906;2023-08-01T08:14:24;8.37;;;2.67;;
77206;SDS011;66190;50.708;7.906;2023-08-01T08:16:50;8.73;;;2.60;;
77206;SDS011;66190;50.708;7.906;2023-08-01T08:19:16;6.80;;;2.00;;
77206;SDS011;66190;50.708;7.906;2023-08-01T08:21:41;9.07;;;2.90;;
77206;SDS011;66190;50.708;7.906;2023-08-01T08:24:06;9.93;;;3.10;;
77206;SDS011;66190;50.708;7.906;2023-08-01T08:26:32;9.57;;;3.10;;
77206;SDS011;66190;50.708;7.906;2023-08-01T08:29:02;8.15;;;2.55;;
77206;SDS011;66190;50.708;7.906;2023-08-01T08:31:28;8.40;;;3.00;;
77206;SDS011;66190;50.708;7.906;2023-08-01T08:33:53;7.37;;;2.43;;
77206;SDS011;66190;50.708;7.906;2023-08-01T08:36:18;10.50;;;3.03;;
77206;SDS011;66190;50.708;7.906;2023-08-01T08:38:44;9.47;;;2.87;;
77206;SDS011;66190;50.708;7.906;2023-08-01T08:41:10;8.63;;;2.83;;
77206;SDS011;66190;50.708;7.906;2023-08-01T08:43:38;8.85;;;2.92;;
77206;SDS011;66190;50.708;7.906;2023-08-01T08:46:06;10.85;;;2.78;;
77206;SDS011;66190;50.708;7.906;2023-08-01T08:48:33;8.83;;;2.50;;
77206;SDS011;66190;50.708;7.906;2023-08-01T08:51:00;8.05;;;2.55;;
77206;SDS011;66190;50.708;7.906;2023-08-01T08:53:26;6.22;;;2.28;;
77206;SDS011;66190;50.708;7.906;2023-08-01T08:55:52;7.20;;;2.73;;
77206;SDS011;66190;50.708;7.906;2023-08-01T08:58:18;6.70;;;2.28;;
77206;SDS011;66190;50.708;7.906;2023-08-01T09:00:43;8.57;;;2.87;;
77206;SDS011;66190;50.708;7.906;2023-08-01T09:03:09;9.43;;;2.70;;
77206;SDS011;66190;50.708;7.906;2023-08-01T09:05:39;7.43;;;2.87;;
77206;SDS011;66190;50.708;7.906;2023-08-01T09:08:08;7.68;;;2.72;;
77206;SDS011;66190;50.708;7.906;2023-08-01T09:10:40;9.15;;;3.08;;
77206;SDS011;66190;50.708;7.906;2023-08-01T09:13:07;9.33;;;3.80;;
77206;SDS011;66190;50.708;7.906;2023-08-01T09:15:33;7.90;;;2.95;;
77206;SDS011;66190;50.708;7.906;2023-08-01T09:17:59;6.90;;;2.63;;
77206;SDS011;66190;50.708;7.906;2023-08-01T09:20:27;6.90;;;2.60;;
77206;SDS011;66190;50.708;7.906;2023-08-01T09:22:53;8.40;;;2.70;;
77206;SDS011;66190;50.708;7.906;2023-08-01T09:25:18;8.20;;;2.80;;
77206;SDS011;66190;50.708;7.906;2023-08-01T09:27:44;7.90;;;2.73;;
77206;SDS011;66190;50.708;7.906;2023-08-01T09:30:10;8.98;;;2.83;;
77206;SDS011;66190;50.708;7.906;2023-08-01T09:32:38;8.38;;;2.80;;
77206;SDS011;66190;50.708;7.906;2023-08-01T09:35:04;6.87;;;2.70;;
77206;SDS011;66190;50.708;7.906;2023-08-01T09:37:40;8.45;;;2.70;;
77206;SDS011;66190;50.708;7.906;2023-08-01T09:40:06;6.60;;;2.95;;
77206;SDS011;66190;50.708;7.906;2023-08-01T09:42:39;9.13;;;2.17;;
77206;SDS011;66190;50.708;7.906;2023-08-01T09:45:14;8.52;;;3.20;;
77206;SDS011;66190;50.708;7.906;2023-08-01T09:47:41;11.80;;;4.30;;
77206;SDS011;66190;50.708;7.906;2023-08-01T09:50:08;8.02;;;3.05;;
77206;SDS011;66190;50.708;7.906;2023-08-01T09:52:36;9.60;;;3.55;;
77206;SDS011;66190;50.708;7.906;2023-08-01T09:55:02;11.07;;;4.50;;
77206;SDS011;66190;50.708;7.906;2023-08-01T09:57:28;8.98;;;2.85;;
77206;SDS011;66190;50.708;7.906;2023-08-01T09:59:58;7.75;;;2.70;;
77206;SDS011;66190;50.708;7.906;2023-08-01T10:02:25;7.85;;;3.28;;
77206;SDS011;66190;50.708;7.906;2023-08-01T10:04:54;11.10;;;3.13;;
77206;SDS011;66190;50.708;7.906;2023-08-01T10:07:26;10.70;;;4.07;;
77206;SDS011;66190;50.708;7.906;2023-08-01T10:09:57;7.88;;;2.20;;
77206;SDS011;66190;50.708;7.906;2023-08-01T10:12:25;8.10;;;2.50;;
77206;SDS011;66190;50.708;7.906;2023-08-01T10:14:51;8.68;;;2.50;;
77206;SDS011;66190;50.708;7.906;2023-08-01T10:17:18;6.67;;;2.00;;
77206;SDS011;66190;50.708;7.906;2023-08-01T10:19:46;6.10;;;1.63;;
77206;SDS011;66190;50.708;7.906;2023-08-01T10:22:13;6.53;;;1.80;;
77206;SDS011;66190;50.708;7.906;2023-08-01T10:24:39;7.43;;;1.85;;
77206;SDS011;66190;50.708;7.906;2023-08-01T10:27:13;8.18;;;2.40;;
77206;SDS011;66190;50.708;7.906;2023-08-01T10:29:41;6.63;;;1.93;;
77206;SDS011;66190;50.708;7.906;2023-08-01T10:32:07;7.45;;;1.80;;
77206;SDS011;66190;50.708;7.906;2023-08-01T10:34:32;5.78;;;1.80;;
77206;SDS011;66190;50.708;7.906;2023-08-01T10:36:58;6.67;;;1.90;;
77206;SDS011;66190;50.708;7.906;2023-08-01T10:39:25;6.28;;;2.33;;
77206;SDS011;66190;50.708;7.906;2023-08-01T10:42:03;5.90;;;1.80;;
77206;SDS011;66190;50.708;7.906;2023-08-01T10:44:30;7.18;;;2.30;;
77206;SDS011;66190;50.708;7.906;2023-08-01T10:47:02;6.35;;;2.20;;
77206;SDS011;66190;50.708;7.906;2023-08-01T10:49:39;6.95;;;2.30;;
77206;SDS011;66190;50.708;7.906;2023-08-01T10:52:17;6.68;;;1.98;;
77206;SDS011;66190;50.708;7.906;2023-08-01T10:54:59;8.17;;;2.43;;
77206;SDS011;66190;50.708;7.906;2023-08-01T10:57:35;7.32;;;2.78;;
77206;SDS011;66190;50.708;7.906;2023-08-01T11:00:02;6.10;;;1.63;;
77206;SDS011;66190;50.708;7.906;2023-08-01T11:02:34;5.82;;;1.60;;
77206;SDS011;66190;50.708;7.906;2023-08-01T11:05:01;6.83;;;1.60;;
77206;SDS011;66190;50.708;7.906;2023-08-01T11:07:32;9.18;;;1.90;;
77206;SDS011;66190;50.708;7.906;2023-08-01T11:10:08;5.85;;;1.60;;
77206;SDS011;66190;50.708;7.906;2023-08-01T11:12:38;6.33;;;1.93;;
77206;SDS011;66190;50.708;7.906;2023-08-01T11:15:06;7.20;;;1.85;;
77206;SDS011;66190;50.708;7.906;2023-08-01T11:17:35;5.90;;;2.03;;
77206;SDS011;66190;50.708;7.906;2023-08-01T11:20:04;5.03;;;1.45;;
77206;SDS011;66190;50.708;7.906;2023-08-01T11:22:32;6.10;;;1.70;;
77206;SDS011;66190;50.708;7.906;2023-08-01T11:24:58;5.30;;;1.70;;
77206;SDS011;66190;50.708;7.906;2023-08-01T11:27:24;6.68;;;1.80;;
77206;SDS011;66190;50.708;7.906;2023-08-01T11:29:50;5.63;;;1.17;;
77206;SDS011;66190;50.708;7.906;2023-08-01T11:32:15;7.35;;;2.13;;
77206;SDS011;66190;50.708;7.906;2023-08-01T11:34:41;6.20;;;1.57;;
77206;SDS011;66190;50.708;7.906;2023-08-01T11:37:11;5.68;;;1.52;;
77206;SDS011;66190;50.708;7.906;2023-08-01T11:39:37;8.67;;;1.80;;
77206;SDS011;66190;50.708;7.906;2023-08-01T11:42:03;4.97;;;1.63;;
77206;SDS011;66190;50.708;7.906;2023-08-01T11:44:28;5.60;;;1.63;;
77206;SDS011;66190;50.708;7.906;2023-08-01T11:46:54;5.72;;;1.40;;
77206;SDS011;66190;50.708;7.906;2023-08-01T11:49:20;5.95;;;1.52;;
77206;SDS011;66190;50.708;7.906;2023-08-01T11:51:46;6.25;;;2.05;;
77206;SDS011;66190;50.708;7.906;2023-08-01T11:54:12;5.30;;;1.60;;
77206;SDS011;66190;50.708;7.906;2023-08-01T11:56:38;7.53;;;1.88;;
77206;SDS011;66190;50.708;7.906;2023-08-01T11:59:09;5.97;;;2.00;;
77206;SDS011;66190;50.708;7.906;2023-08-01T12:01:42;6.70;;;2.05;;
77206;SDS011;66190;50.708;7.906;2023-08-01T12:04:10;9.15;;;1.88;;
77206;SDS011;66190;50.708;7.906;2023-08-01T12:06:36;5.40;;;1.60;;
77206;SDS011;66190;50.708;7.906;2023-08-01T12:09:08;6.50;;;1.10;;
77206;SDS011;66190;50.708;7.906;2023-08-01T12:11:35;6.18;;;1.80;;
77206;SDS011;66190;50.708;7.906;2023-08-01T12:16:29;7.07;;;2.38;;
77206;SDS011;66190;50.708;7.906;2023-08-01T12:18:55;6.23;;;2.13;;
77206;SDS011;66190;50.708;7.906;2023-08-01T12:21:21;7.10;;;1.38;;
77206;SDS011;66190;50.708;7.906;2023-08-01T12:23:47;10.20;;;1.37;;
77206;SDS011;66190;50.708;7.906;2023-08-01T12:26:12;5.90;;;2.07;;
77206;SDS011;66190;50.708;7.906;2023-08-01T12:28:37;6.53;;;1.48;;
77206;SDS011;66190;50.708;7.906;2023-08-01T12:31:03;5.13;;;1.37;;
77206;SDS011;66190;50.708;7.906;2023-08-01T12:33:29;6.60;;;1.60;;
77206;SDS011;66190;50.708;7.906;2023-08-01T12:35:54;5.93;;;1.00;;
77206;SDS011;66190;50.708;7.906;2023-08-01T12:38:20;4.50;;;1.60;;
77206;SDS011;66190;50.708;7.906;2023-08-01T12:40:45;4.73;;;1.37;;
77206;SDS011;66190;50.708;7.906;2023-08-01T12:43:12;5.93;;;1.50;;
77206;SDS011;66190;50.708;7.906;2023-08-01T12:45:37;6.47;;;2.03;;
77206;SDS011;66190;50.708;7.906;2023-08-01T12:48:03;6.03;;;1.60;;
77206;SDS011;66190;50.708;7.906;2023-08-01T12:50:28;6.43;;;2.60;;
77206;SDS011;66190;50.708;7.906;2023-08-01T12:52:54;5.18;;;1.35;;
77206;SDS011;66190;50.708;7.906;2023-08-01T12:55:19;5.40;;;1.43;;
77206;SDS011;66190;50.708;7.906;2023-08-01T12:57:45;7.20;;;2.00;;
77206;SDS011;66190;50.708;7.906;2023-08-01T13:00:10;5.17;;;1.80;;
77206;SDS011;66190;50.708;7.906;2023-08-01T13:02:36;5.70;;;1.58;;
77206;SDS011;66190;50.708;7.906;2023-08-01T13:05:03;6.55;;;1.80;;
77206;SDS011;66190;50.708;7.906;2023-08-01T13:07:29;5.40;;;1.50;;
77206;SDS011;66190;50.708;7.906;2023-08-01T13:09:57;6.80;;;1.80;;
77206;SDS011;66190;50.708;7.906;2023-08-01T13:12:23;5.63;;;1.40;;
77206;SDS011;66190;50.708;7.906;2023-08-01T13:14:48;7.90;;;1.57;;
77206;SDS011;66190;50.708;7.906;2023-08-01T13:17:14;7.30;;;1.70;;
77206;SDS011;66190;50.708;7.906;2023-08-01T13:19:39;6.13;;;1.40;;
77206;SDS011;66190;50.708;7.906;2023-08-01T13:22:05;5.47;;;1.60;;
77206;SDS011;66190;50.708;7.906;2023-08-01T13:24:31;5.15;;;1.75;;
77206;SDS011;66190;50.708;7.906;2023-08-01T13:26:57;6.40;;;1.20;;
77206;SDS011;66190;50.708;7.906;2023-08-01T13:29:23;7.47;;;2.40;;
77206;SDS011;66190;50.708;7.906;2023-08-01T13:31:48;6.67;;;1.67;;
77206;SDS011;66190;50.708;7.906;2023-08-01T13:34:14;5.97;;;1.60;;
77206;SDS011;66190;50.708;7.906;2023-08-01T13:36:39;5.60;;;1.50;;
77206;SDS011;66190;50.708;7.906;2023-08-01T13:39:04;5.00;;;1.37;;
77206;SDS011;66190;50.708;7.906;2023-08-01T13:41:31;4.70;;;1.40;;
77206;SDS011;66190;50.708;7.906;2023-08-01T13:43:57;4.23;;;1.07;;
77206;SDS011;66190;50.708;7.906;2023-08-01T13:46:22;4.65;;;1.42;;
77206;SDS011;66190;50.708;7.906;2023-08-01T13:48:47;4.93;;;1.37;;
77206;SDS011;66190;50.708;7.906;2023-08-01T13:51:13;4.80;;;1.07;;
77206;SDS011;66190;50.708;7.906;2023-08-01T13:53:39;5.43;;;1.40;;
77206;SDS011;66190;50.708;7.906;2023-08-01T13:56:08;6.90;;;1.35;;
77206;SDS011;66190;50.708;7.906;2023-08-01T13:58:33;5.35;;;1.50;;
77206;SDS011;66190;50.708;7.906;2023-08-01T14:01:03;6.90;;;1.60;;
77206;SDS011;66190;50.708;7.906;2023-08-01T14:03:29;6.00;;;1.35;;
77206;SDS011;66190;50.708;7.906;2023-08-01T14:05:55;6.25;;;1.63;;
77206;SDS011;66190;50.708;7.906;2023-08-01T14:08:21;5.07;;;1.52;;
77206;SDS011;66190;50.708;7.906;2023-08-01T14:10:46;3.73;;;1.03;;
77206;SDS011;66190;50.708;7.906;2023-08-01T14:13:12;5.30;;;1.50;;
77206;SDS011;66190;50.708;7.906;2023-08-01T14:15:37;4.87;;;1.10;;
77206;SDS011;66190;50.708;7.906;2023-08-01T14:18:03;6.20;;;1.00;;
77206;SDS011;66190;50.708;7.906;2023-08-01T14:20:28;4.23;;;0.83;;
77206;SDS011;66190;50.708;7.906;2023-08-01T14:22:53;3.37;;;0.83;;
77206;SDS011;66190;50.708;7.906;2023-08-01T14:25:19;3.93;;;0.90;;
77206;SDS011;66190;50.708;7.906;2023-08-01T14:27:44;3.58;;;0.95;;
77206;SDS011;66190;50.708;7.906;2023-08-01T14:30:09;3.70;;;1.13;;
77206;SDS011;66190;50.708;7.906;2023-08-01T14:32:36;4.93;;;0.90;;
77206;SDS011;66190;50.708;7.906;2023-08-01T14:35:02;3.72;;;0.85;;
77206;SDS011;66190;50.708;7.906;2023-08-01T14:37:28;4.10;;;0.90;;
77206;SDS011;66190;50.708;7.906;2023-08-01T14:39:54;3.90;;;0.90;;
77206;SDS011;66190;50.708;7.906;2023-08-01T14:42:20;3.70;;;0.90;;
77206;SDS011;66190;50.708;7.906;2023-08-01T14:44:51;5.90;;;1.13;;
77206;SDS011;66190;50.708;7.906;2023-08-01T14:47:18;3.97;;;1.20;;
77206;SDS011;66190;50.708;7.906;2023-08-01T14:49:44;4.03;;;0.90;;
77206;SDS011;66190;50.708;7.906;2023-08-01T14:52:09;4.18;;;0.82;;
77206;SDS011;66190;50.708;7.906;2023-08-01T14:54:35;4.67;;;1.10;;
77206;SDS011;66190;50.708;7.906;2023-08-01T14:57:01;5.30;;;1.50;;
77206;SDS011;66190;50.708;7.906;2023-08-01T14:59:26;4.97;;;1.10;;
77206;SDS011;66190;50.708;7.906;2023-08-01T15:01:52;3.50;;;0.87;;
77206;SDS011;66190;50.708;7.906;2023-08-01T15:04:17;3.33;;;0.90;;
77206;SDS011;66190;50.708;7.906;2023-08-01T15:06:43;4.10;;;0.87;;
77206;SDS011;66190;50.708;7.906;2023-08-01T15:09:08;4.25;;;1.10;;
77206;SDS011;66190;50.708;7.906;2023-08-01T15:11:35;4.43;;;0.83;;
77206;SDS011;66190;50.708;7.906;2023-08-01T15:14:00;4.40;;;1.27;;
77206;SDS011;66190;50.708;7.906;2023-08-01T15:16:26;7.47;;;2.10;;
77206;SDS011;66190;50.708;7.906;2023-08-01T15:18:51;4.60;;;1.40;;
77206;SDS011;66190;50.708;7.906;2023-08-01T15:21:17;5.47;;;1.33;;
77206;SDS011;66190;50.708;7.906;2023-08-01T15:23:42;5.23;;;1.00;;
77206;SDS011;66190;50.708;7.906;2023-08-01T15:26:08;4.57;;;1.00;;
77206;SDS011;66190;50.708;7.906;2023-08-01T15:28:33;5.00;;;1.37;;
77206;SDS011;66190;50.708;7.906;2023-08-01T15:31:04;4.07;;;0.80;;
77206;SDS011;66190;50.708;7.906;2023-08-01T15:33:31;6.40;;;1.20;;
77206;SDS011;66190;50.708;7.906;2023-08-01T15:36:02;4.80;;;1.00;;
77206;SDS011;66190;50.708;7.906;2023-08-01T15:38:29;6.30;;;1.50;;
77206;SDS011;66190;50.708;7.906;2023-08-01T15:40:56;4.60;;;1.10;;
77206;SDS011;66190;50.708;7.906;2023-08-01T15:43:22;5.47;;;1.15;;
77206;SDS011;66190;50.708;7.906;2023-08-01T15:45:49;4.13;;;0.63;;
77206;SDS011;66190;50.708;7.906;2023-08-01T15:48:14;4.85;;;1.00;;
77206;SDS011;66190;50.708;7.906;2023-08-01T15:50:40;37.00;;;14.03;;
77206;SDS011;66190;50.708;7.906;2023-08-01T15:53:06;12.43;;;5.63;;
77206;SDS011;66190;50.708;7.906;2023-08-01T15:55:32;6.87;;;1.33;;
77206;SDS011;66190;50.708;7.906;2023-08-01T15:57:57;5.53;;;1.40;;
77206;SDS011;66190;50.708;7.906;2023-08-01T16:00:22;5.83;;;1.70;;
77206;SDS011;66190;50.708;7.906;2023-08-01T16:02:48;5.27;;;1.10;;
77206;SDS011;66190;50.708;7.906;2023-08-01T16:05:13;5.35;;;1.00;;
77206;SDS011;66190;50.708;7.906;2023-08-01T16:07:39;6.77;;;1.33;;
77206;SDS011;66190;50.708;7.906;2023-08-01T16:10:04;4.47;;;1.20;;
77206;SDS011;66190;50.708;7.906;2023-08-01T16:12:30;5.20;;;1.40;;
77206;SDS011;66190;50.708;7.906;2023-08-01T16:14:55;6.22;;;2.15;;
77206;SDS011;66190;50.708;7.906;2023-08-01T16:17:21;5.13;;;0.90;;
77206;SDS011;66190;50.708;7.906;2023-08-01T16:19:46;6.83;;;1.83;;
77206;SDS011;66190;50.708;7.906;2023-08-01T16:22:11;7.23;;;1.77;;
77206;SDS011;66190;50.708;7.906;2023-08-01T16:24:37;5.87;;;2.13;;
77206;SDS011;66190;50.708;7.906;2023-08-01T16:27:02;6.03;;;1.60;;
77206;SDS011;66190;50.708;7.906;2023-08-01T16:29:28;7.55;;;1.58;;
77206;SDS011;66190;50.708;7.906;2023-08-01T16:31:53;8.80;;;2.97;;
77206;SDS011;66190;50.708;7.906;2023-08-01T16:34:19;7.47;;;2.47;;
77206;SDS011;66190;50.708;7.906;2023-08-01T16:36:45;25.13;;;7.85;;
77206;SDS011;66190;50.708;7.906;2023-08-01T16:39:10;40.13;;;15.40;;
77206;SDS011;66190;50.708;7.906;2023-08-01T16:41:35;10.10;;;3.13;;
77206;SDS011;66190;50.708;7.906;2023-08-01T16:44:01;5.15;;;1.38;;
77206;SDS011;66190;50.708;7.906;2023-08-01T16:46:26;7.57;;;2.30;;
77206;SDS011;66190;50.708;7.906;2023-08-01T16:48:52;6.83;;;2.53;;
77206;SDS011;66190;50.708;7.906;2023-08-01T16:51:17;5.17;;;1.63;;
77206;SDS011;66190;50.708;7.906;2023-08-01T16:53:43;6.95;;;1.52;;
77206;SDS011;66190;50.708;7.906;2023-08-01T16:56:08;6.33;;;1.40;;
77206;SDS011;66190;50.708;7.906;2023-08-01T16:58:33;6.93;;;1.63;;
77206;SDS011;66190;50.708;7.906;2023-08-01T17:00:59;5.83;;;2.20;;
77206;SDS011;66190;50.708;7.906;2023-08-01T17:03:24;6.67;;;1.20;;
77206;SDS011;66190;50.708;7.906;2023-08-01T17:05:49;3.87;;;1.17;;
77206;SDS011;66190;50.708;7.906;2023-08-01T17:08:15;3.50;;;0.90;;
77206;SDS011;66190;50.708;7.906;2023-08-01T17:10:40;4.30;;;1.10;;
77206;SDS011;66190;50.708;7.906;2023-08-01T17:13:06;3.90;;;0.87;;
77206;SDS011;66190;50.708;7.906;2023-08-01T17:15:31;4.57;;;1.33;;
77206;SDS011;66190;50.708;7.906;2023-08-01T17:17:57;4.27;;;1.00;;
77206;SDS011;66190;50.708;7.906;2023-08-01T17:20:23;5.43;;;1.20;;
77206;SDS011;66190;50.708;7.906;2023-08-01T17:22:48;4.78;;;1.10;;
77206;SDS011;66190;50.708;7.906;2023-08-01T17:25:14;5.03;;;1.20;;
77206;SDS011;66190;50.708;7.906;2023-08-01T17:27:39;5.70;;;1.47;;